Time;durP1;ratioP1;P1;durP2;ratioP2;P2;SDS_P1;SDS_P2;PMS_P1;PMS_P2;Temp;Humidity;BMP_temperature;BMP_pressure;BME280_temperature;BME280_humidity;BME280_pressure;Samples;Min_cycle;Max_cycle;Signal;HPM_P1;HPM_P2
2023/10/05 00:03:37;;;;;;;8.93;7.88;;;;;;;21.53;44.73;95874.28;6015247;28;108953;-60
2023/10/05 00:06:44;;;;;;;8.20;7.40;;;;;;;21.44;44.61;95876.75;6016276;28;108984;-60
2023/10/05 00:09:47;;;;;;;8.60;7.80;;;;;;;21.51;44.87;95874.56;6007699;28;108942;-60
2023/10/05 00:12:50;;;;;;;8.95;7.40;;;;;;;21.63;44.67;95874.16;6016598;28;110156;-60
2023/10/05 00:15:55;;;;;;;9.30;8.40;;;;;;;21.46;44.94;95879.91;6017214;28;108899;-60
2023/10/05 00:18:59;;;;;;;8.60;7.70;;;;;;;21.44;45.24;95878.59;6007679;29;108983;-60
2023/10/05 00:22:04;;;;;;;9.65;8.68;;;;;;;21.47;44.95;95878.03;6014962;28;109056;-61
2023/10/05 00:25:09;;;;;;;9.93;8.60;;;;;;;21.53;44.75;95874.28;6016223;28;109129;-61
2023/10/05 00:28:20;;;;;;;10.03;8.33;;;;;;;21.55;44.53;95868.66;6016876;28;108914;-60
2023/10/05 00:31:25;;;;;;;8.80;7.60;;;;;;;21.58;44.92;95876.09;6005623;28;108915;-60
2023/10/05 00:34:29;;;;;;;8.40;7.60;;;;;;;21.46;44.84;95874.59;6016397;28;109171;-60
2023/10/05 00:37:34;;;;;;;8.70;7.90;;;;;;;21.40;44.82;95875.72;6017265;28;109022;-60
2023/10/05 00:40:42;;;;;;;8.60;7.80;;;;;;;21.28;45.65;95880.63;6017067;29;109214;-60
2023/10/05 00:43:46;;;;;;;8.52;7.72;;;;;;;21.34;45.18;95878.69;6006814;28;109097;-60
2023/10/05 00:46:52;;;;;;;9.30;7.80;;;;;;;21.42;44.97;95873.56;6016542;28;110083;-61
2023/10/05 00:49:58;;;;;;;8.80;7.82;;;;;;;21.59;44.85;95880.34;6016681;28;108856;-60
2023/10/05 00:53:03;;;;;;;9.57;8.67;;;;;;;21.55;45.02;95887.31;5993867;29;109142;-61
2023/10/05 00:56:11;;;;;;;9.02;8.13;;;;;;;21.60;44.65;95880.06;6014453;29;109119;-60
2023/10/05 00:59:20;;;;;;;9.00;8.07;;;;;;;21.55;44.99;95874.78;6015728;28;108923;-61
2023/10/05 01:02:26;;;;;;;8.40;7.30;;;;;;;21.46;45.11;95877.25;6015332;28;108912;-60
2023/10/05 01:05:35;;;;;;;9.43;7.70;;;;;;;21.23;45.51;95874.53;6005843;28;111556;-61
2023/10/05 01:08:49;;;;;;;9.23;8.33;;;;;;;21.36;45.55;95866.72;6016722;29;109004;-60
2023/10/05 01:11:59;;;;;;;9.00;8.10;;;;;;;21.46;45.22;95873.78;6007655;29;109043;-60
2023/10/05 01:15:06;;;;;;;8.77;7.87;;;;;;;21.49;45.15;95871.34;6013203;28;108839;-60
2023/10/05 01:18:11;;;;;;;8.38;7.57;;;;;;;21.41;45.03;95871.97;6010083;28;109136;-60
2023/10/05 01:21:16;;;;;;;8.27;7.47;;;;;;;21.36;45.36;95873.91;6015898;29;109144;-61
2023/10/05 01:24:23;;;;;;;9.75;7.30;;;;;;;21.40;45.13;95870.38;6015621;28;109125;-60
2023/10/05 01:27:29;;;;;;;9.20;8.10;;;;;;;21.29;45.43;95874.22;5999944;28;109024;-60
2023/10/05 01:30:37;;;;;;;8.88;7.50;;;;;;;21.26;45.56;95874.78;6013595;28;109091;-60
2023/10/05 01:33:42;;;;;;;8.40;7.50;;;;;;;21.08;45.57;95859.50;6015462;28;109042;-61
2023/10/05 01:36:46;;;;;;;11.20;8.10;;;;;;;21.16;45.33;95859.69;6014514;28;109014;-60
2023/10/05 01:39:51;;;;;;;8.30;7.50;;;;;;;21.32;45.39;95860.34;6005444;28;109311;-60
2023/10/05 01:42:55;;;;;;;9.48;7.20;;;;;;;21.48;44.67;95855.66;6015621;29;108931;-60
2023/10/05 01:45:58;;;;;;;10.23;7.80;;;;;;;21.55;44.41;95858.00;6015139;28;108938;-59
2023/10/05 01:49:04;;;;;;;9.10;7.60;;;;;;;21.53;44.71;95855.63;6015022;28;109185;-60
2023/10/05 01:52:09;;;;;;;9.05;8.23;;;;;;;21.45;44.52;95853.56;6007911;28;108948;-59
2023/10/05 01:55:18;;;;;;;8.15;7.20;;;;;;;21.39;44.80;95860.81;6014800;28;109167;-60
2023/10/05 01:58:25;;;;;;;8.60;7.43;;;;;;;21.47;44.75;95860.19;6015017;29;108970;-59
2023/10/05 02:01:30;;;;;;;8.05;7.25;;;;;;;21.38;44.57;95859.22;6005653;28;108976;-59
2023/10/05 02:04:42;;;;;;;8.73;7.93;;;;;;;21.28;45.02;95861.97;6015498;28;108910;-59
2023/10/05 02:07:49;;;;;;;9.10;7.60;;;;;;;21.41;45.00;95858.66;6015841;28;108993;-59
2023/10/05 02:10:54;;;;;;;8.70;7.73;;;;;;;21.52;44.72;95860.16;6015840;29;108848;-59
2023/10/05 02:14:01;;;;;;;8.52;7.63;;;;;;;21.49;44.62;95858.03;6004008;28;108858;-59
2023/10/05 02:17:04;;;;;;;9.57;7.67;;;;;;;21.48;44.64;95859.13;6014861;29;109307;-60
2023/10/05 02:20:25;;;;;;;8.88;7.97;;;;;;;21.47;44.69;95864.72;6015944;28;109198;-60
2023/10/05 02:23:38;;;;;;;8.80;7.90;;;;;;;21.35;45.06;95867.00;6009353;28;110624;-60
2023/10/05 02:27:08;;;;;;;8.38;7.40;;;;;;;21.30;45.14;95869.69;6010211;29;110302;-60
2023/10/05 02:30:10;;;;;;;9.10;7.68;;;;;;;21.16;45.42;95867.66;6014909;29;108944;-60
2023/10/05 02:33:14;;;;;;;10.07;7.75;;;;;;;21.25;45.02;95877.72;6010724;29;108926;-59
2023/10/05 02:36:20;;;;;;;8.57;7.35;;;;;;;21.08;45.58;95872.81;6003680;28;108945;-60
2023/10/05 02:39:25;;;;;;;8.70;7.80;;;;;;;21.12;45.28;95876.50;6013254;28;109037;-60
2023/10/05 02:42:29;;;;;;;9.52;7.70;;;;;;;21.10;45.87;95870.66;6015433;28;108955;-60
2023/10/05 02:45:33;;;;;;;8.35;7.40;;;;;;;21.25;45.22;95872.41;6014910;28;109024;-59
2023/10/05 02:48:36;;;;;;;8.90;7.30;;;;;;;21.42;44.59;95873.56;6007270;28;108987;-55
2023/10/05 02:51:41;;;;;;;8.88;7.80;;;;;;;21.43;44.90;95875.16;6030255;28;109004;-55
2023/10/05 02:54:47;;;;;;;9.20;7.47;;;;;;;21.48;45.13;95868.97;6016913;28;109078;-58
2023/10/05 02:57:53;;;;;;;8.88;7.97;;;;;;;21.36;45.25;95877.34;6011896;28;109043;-58
2023/10/05 03:00:58;;;;;;;8.90;8.10;;;;;;;21.30;45.08;95873.13;6012910;28;110190;-58
2023/10/05 03:04:09;;;;;;;8.63;7.53;;;;;;;21.32;45.88;95878.19;6018931;28;108982;-58
2023/10/05 03:07:14;;;;;;;10.15;8.25;;;;;;;21.35;45.18;95882.97;6018891;28;108834;-58
2023/10/05 03:10:23;;;;;;;9.35;8.00;;;;;;;21.36;44.88;95880.03;6007195;29;108945;-58
2023/10/05 03:13:28;;;;;;;9.10;8.20;;;;;;;21.37;44.80;95878.94;6019027;28;108869;-58
2023/10/05 03:16:35;;;;;;;9.80;8.80;;;;;;;21.44;44.54;95875.94;6017007;28;108911;-57
2023/10/05 03:19:39;;;;;;;13.13;10.38;;;;;;;21.42;44.70;95865.56;6019028;28;108909;-56
2023/10/05 03:22:45;;;;;;;12.32;11.23;;;;;;;21.56;44.74;95873.72;6006525;28;108931;-59
2023/10/05 03:25:53;;;;;;;12.40;11.30;;;;;;;21.76;44.84;95872.69;6015494;29;109285;-59
2023/10/05 03:29:00;;;;;;;12.10;10.90;;;;;;;21.85;44.86;95875.59;6017909;29;108947;-59
2023/10/05 03:32:13;;;;;;;11.60;10.40;;;;;;;21.88;44.90;95875.00;6009691;28;109258;-61
2023/10/05 03:35:22;;;;;;;13.60;11.63;;;;;;;21.85;45.45;95879.03;6016954;28;108922;-59
2023/10/05 03:38:28;;;;;;;13.40;12.00;;;;;;;21.87;45.62;95879.53;6018376;28;109156;-59
2023/10/05 03:41:31;;;;;;;12.07;10.87;;;;;;;21.90;45.14;95886.97;6018643;29;109320;-59
2023/10/05 03:44:37;;;;;;;13.73;12.40;;;;;;;21.94;45.20;95893.31;6007041;28;109294;-59
2023/10/05 03:47:40;;;;;;;14.47;12.90;;;;;;;22.01;47.94;95885.78;6017085;28;109337;-60
2023/10/05 03:50:43;;;;;;;20.48;18.48;;;;;;;22.10;47.23;95881.41;6015951;28;109296;-60
2023/10/05 03:53:50;;;;;;;17.40;14.60;;;;;;;22.13;46.91;95887.22;6017484;28;110402;-60
2023/10/05 03:57:04;;;;;;;14.97;12.13;;;;;;;22.14;46.16;95888.81;6008137;28;108934;-61
2023/10/05 04:00:23;;;;;;;13.15;11.60;;;;;;;22.10;46.55;95889.41;6015730;28;108884;-60
2023/10/05 04:03:27;;;;;;;12.55;11.05;;;;;;;22.11;45.92;95890.19;6017020;29;108982;-59
2023/10/05 04:06:31;;;;;;;12.80;11.10;;;;;;;22.08;46.06;95891.56;6006817;28;108969;-60
2023/10/05 04:09:35;;;;;;;12.20;10.90;;;;;;;22.08;46.21;95902.22;6016842;29;109469;-59
2023/10/05 04:12:40;;;;;;;10.73;9.40;;;;;;;22.16;46.62;95900.00;6018051;29;108923;-58
2023/10/05 04:15:45;;;;;;;11.13;9.93;;;;;;;22.10;46.20;95896.59;6017069;28;109298;-58
2023/10/05 04:18:50;;;;;;;11.70;10.20;;;;;;;22.15;46.00;95887.75;6001890;28;109231;-60
2023/10/05 04:21:56;;;;;;;9.90;8.93;;;;;;;22.02;46.29;95891.91;6017497;29;108965;-59
2023/10/05 04:25:00;;;;;;;9.98;8.98;;;;;;;21.90;46.39;95889.63;6017842;28;108850;-60
2023/10/05 04:28:04;;;;;;;10.73;8.40;;;;;;;21.88;46.29;95891.78;6017741;28;108962;-60
2023/10/05 04:31:13;;;;;;;9.82;8.20;;;;;;;21.87;45.91;95890.19;6006592;28;111232;-60
2023/10/05 04:34:18;;;;;;;9.75;8.00;;;;;;;21.87;45.50;95894.75;6012683;28;108951;-60
2023/10/05 04:37:23;;;;;;;9.45;8.48;;;;;;;21.86;45.95;95899.28;6005821;29;108909;-59
2023/10/05 04:40:26;;;;;;;9.50;8.50;;;;;;;21.87;45.52;95902.72;6007865;28;109875;-59
2023/10/05 04:43:30;;;;;;;8.85;7.95;;;;;;;21.87;45.51;95905.41;6016724;28;108955;-59
2023/10/05 04:46:35;;;;;;;9.80;8.50;;;;;;;21.86;45.41;95909.94;6017365;28;109020;-59
2023/10/05 04:49:38;;;;;;;9.55;8.50;;;;;;;21.86;45.61;95917.13;6017351;28;108900;-59
2023/10/05 04:52:45;;;;;;;10.07;8.37;;;;;;;21.87;45.38;95924.06;6006852;28;109111;-59
2023/10/05 04:55:53;;;;;;;10.07;8.68;;;;;;;21.83;45.81;95921.13;6017397;29;108793;-60
2023/10/05 04:59:22;;;;;;;9.25;8.35;;;;;;;21.81;45.55;95928.59;6016803;28;108991;-59
2023/10/05 05:02:47;;;;;;;8.95;7.97;;;;;;;21.82;45.67;95927.53;6011756;28;109039;-58
2023/10/05 05:06:08;;;;;;;9.60;8.60;;;;;;;21.83;45.43;95931.00;6011750;28;108930;-59
2023/10/05 05:09:12;;;;;;;9.10;8.20;;;;;;;21.84;45.53;95943.25;5993820;29;108825;-59
2023/10/05 05:12:17;;;;;;;10.75;8.90;;;;;;;21.84;45.81;95941.38;6003040;29;109017;-60
2023/10/05 05:15:21;;;;;;;10.93;8.30;;;;;;;21.84;46.05;95938.69;6006332;28;109215;-60
2023/10/05 05:18:25;;;;;;;10.07;8.30;;;;;;;21.83;45.82;95942.44;6016774;28;109006;-59
2023/10/05 05:21:29;;;;;;;8.80;7.90;;;;;;;21.85;45.77;95945.66;6016690;28;109029;-58
2023/10/05 05:24:33;;;;;;;10.80;8.90;;;;;;;21.85;45.72;95945.66;6017009;29;108993;-59
2023/10/05 05:27:36;;;;;;;9.35;7.82;;;;;;;21.87;45.32;95948.81;6005803;28;109021;-60
2023/10/05 05:30:40;;;;;;;9.85;8.65;;;;;;;21.88;45.58;95947.75;6011198;28;108990;-59
2023/10/05 05:33:45;;;;;;;9.50;8.50;;;;;;;21.89;45.40;95957.31;6011323;29;109085;-59
2023/10/05 05:36:52;;;;;;;9.93;8.93;;;;;;;21.89;45.91;95953.88;6011462;28;108842;-59
2023/10/05 05:39:55;;;;;;;11.15;8.98;;;;;;;21.89;45.54;95951.19;6012006;29;108958;-60
2023/10/05 05:42:59;;;;;;;10.82;8.68;;;;;;;21.88;45.55;95954.94;6016153;28;109040;-59
2023/10/05 05:46:03;;;;;;;10.85;8.80;;;;;;;21.88;45.63;95958.41;6016336;28;109012;-59
2023/10/05 05:49:09;;;;;;;12.70;9.10;;;;;;;21.88;45.59;95962.94;6005992;28;108928;-59
2023/10/05 05:52:14;;;;;;;9.63;8.55;;;;;;;21.89;45.32;95969.84;6016293;28;109212;-60
2023/10/05 05:55:20;;;;;;;10.60;9.10;;;;;;;21.89;45.94;95965.31;6016433;28;108914;-60
2023/10/05 05:58:25;;;;;;;10.13;8.97;;;;;;;21.89;46.06;95961.88;6016303;28;108913;-60
2023/10/05 06:01:28;;;;;;;12.02;9.10;;;;;;;21.91;45.82;95976.50;6006097;28;109049;-60
2023/10/05 06:04:33;;;;;;;12.60;9.47;;;;;;;21.92;46.20;95975.41;6015641;28;108936;-59
2023/10/05 06:07:38;;;;;;;10.82;8.75;;;;;;;21.94;45.95;95970.59;6015565;28;108908;-60
2023/10/05 06:10:43;;;;;;;10.50;8.90;;;;;;;21.97;46.10;95970.03;6014730;28;109030;-60
2023/10/05 06:13:47;;;;;;;10.40;9.30;;;;;;;22.02;46.20;95971.88;6009172;29;108926;-60
2023/10/05 06:16:52;;;;;;;10.73;9.50;;;;;;;22.04;45.87;95975.03;6015910;28;108884;-60
2023/10/05 06:19:58;;;;;;;10.23;9.20;;;;;;;22.19;46.37;95987.41;6018082;28;109009;-57
2023/10/05 06:23:02;;;;;;;10.63;9.52;;;;;;;22.31;47.85;95977.13;6009636;29;108892;-59
2023/10/05 06:26:06;;;;;;;10.73;9.67;;;;;;;22.42;46.49;95978.63;6019811;28;108839;-58
2023/10/05 06:29:09;;;;;;;11.40;10.20;;;;;;;22.55;46.49;95980.59;6019300;28;110852;-59
2023/10/05 06:32:13;;;;;;;11.50;10.30;;;;;;;22.64;46.50;95983.44;6019684;28;109220;-57
2023/10/05 06:35:18;;;;;;;10.20;9.10;;;;;;;22.76;46.18;95985.72;6007931;28;109114;-57
2023/10/05 06:38:22;;;;;;;10.10;9.10;;;;;;;22.85;46.17;95975.97;6019680;28;108889;-58
2023/10/05 06:41:25;;;;;;;10.23;8.95;;;;;;;22.97;46.22;95979.00;6019395;28;108959;-58
2023/10/05 06:44:29;;;;;;;9.82;8.93;;;;;;;23.08;46.27;95977.78;6019291;28;108951;-58
2023/10/05 06:47:37;;;;;;;10.55;9.30;;;;;;;23.14;46.33;95976.63;6009079;28;108998;-57
2023/10/05 06:50:43;;;;;;;10.85;9.85;;;;;;;23.15;46.37;95983.56;6019317;28;109026;-57
2023/10/05 06:53:46;;;;;;;11.97;9.77;;;;;;;23.13;46.76;95977.72;6019187;28;109001;-57
2023/10/05 06:56:49;;;;;;;12.63;11.43;;;;;;;23.17;47.21;95980.59;6013827;28;108968;-58
2023/10/05 06:59:55;;;;;;;12.93;11.70;;;;;;;23.21;47.50;95976.28;6015437;28;108873;-57
2023/10/05 07:03:02;;;;;;;13.73;12.43;;;;;;;23.25;47.68;95979.97;6019156;28;108908;-57
2023/10/05 07:06:07;;;;;;;14.20;13.00;;;;;;;23.28;47.69;95977.50;6018669;29;109148;-57
2023/10/05 07:09:11;;;;;;;14.90;13.55;;;;;;;23.23;47.96;95964.22;6008134;28;109300;-57
2023/10/05 07:12:14;;;;;;;15.40;13.90;;;;;;;23.38;47.59;95975.78;6018650;29;109098;-56
2023/10/05 07:15:19;;;;;;;16.58;14.88;;;;;;;23.41;47.91;95978.66;6018938;29;108901;-57
2023/10/05 07:18:24;;;;;;;16.77;15.18;;;;;;;23.45;48.05;95979.66;6018772;29;108953;-56
2023/10/05 07:21:29;;;;;;;17.30;15.70;;;;;;;23.49;47.81;95983.34;6008303;28;109260;-57
2023/10/05 07:24:32;;;;;;;18.40;16.70;;;;;;;23.53;48.28;95979.03;6018218;28;108999;-57
2023/10/05 07:27:35;;;;;;;17.95;16.33;;;;;;;23.56;47.85;95978.44;6018562;29;108988;-57
2023/10/05 07:30:39;;;;;;;18.30;16.40;;;;;;;23.58;47.93;95975.47;6012872;28;109198;-57
2023/10/05 07:33:42;;;;;;;17.42;15.93;;;;;;;23.67;47.93;95979.03;6012918;28;109096;-57
2023/10/05 07:36:47;;;;;;;18.03;16.23;;;;;;;23.78;47.48;95974.31;6017956;29;108934;-57
2023/10/05 07:39:51;;;;;;;18.02;16.13;;;;;;;23.84;47.55;95978.50;6018299;29;108910;-57
2023/10/05 07:42:54;;;;;;;16.77;15.27;;;;;;;23.90;47.49;95978.13;6008357;29;109936;-57
2023/10/05 07:45:57;;;;;;;16.60;15.10;;;;;;;23.94;47.52;95977.53;6018533;29;108998;-58
2023/10/05 07:49:00;;;;;;;16.35;14.68;;;;;;;23.96;47.48;95981.50;6017996;29;108927;-56
2023/10/05 07:52:07;;;;;;;16.02;14.32;;;;;;;23.96;47.29;95980.69;6018369;29;108941;-56
2023/10/05 07:55:11;;;;;;;16.60;15.00;;;;;;;23.93;47.26;95975.94;6007267;28;109280;-56
2023/10/05 07:58:15;;;;;;;16.57;14.40;;;;;;;23.92;47.20;95974.38;6018218;28;109235;-57
2023/10/05 08:01:18;;;;;;;14.25;12.75;;;;;;;23.94;47.37;95972.19;6018215;29;109066;-57
2023/10/05 08:04:22;;;;;;;14.87;13.53;;;;;;;23.95;46.84;95971.09;6017306;28;108929;-58
2023/10/05 08:07:26;;;;;;;14.65;12.60;;;;;;;23.94;46.83;95967.63;6008550;29;108877;-58
2023/10/05 08:10:31;;;;;;;14.57;13.02;;;;;;;23.96;46.64;95962.00;6018103;28;108868;-58
2023/10/05 08:13:35;;;;;;;13.88;12.57;;;;;;;23.99;46.70;95958.72;6017707;28;109142;-58
2023/10/05 08:16:38;;;;;;;12.85;11.63;;;;;;;24.00;46.64;95955.78;6007916;28;108904;-57
2023/10/05 08:19:42;;;;;;;13.10;11.77;;;;;;;24.00;46.39;95954.97;6017215;29;108948;-58
2023/10/05 08:22:47;;;;;;;12.10;10.90;;;;;;;24.02;46.42;95950.13;6017478;29;108933;-56
2023/10/05 08:25:50;;;;;;;14.45;12.32;;;;;;;23.99;46.51;95948.81;6017305;29;108884;-56
2023/10/05 08:28:54;;;;;;;13.00;11.80;;;;;;;24.08;46.61;95946.28;6007393;29;110164;-56
2023/10/05 08:31:57;;;;;;;12.07;10.98;;;;;;;24.09;46.22;95939.84;6017571;28;109135;-57
2023/10/05 08:35:07;;;;;;;12.70;10.80;;;;;;;24.10;45.99;95941.44;6016332;29;108939;-57
2023/10/05 08:38:15;;;;;;;11.80;10.60;;;;;;;24.13;46.04;95938.97;6016245;28;108948;-57
2023/10/05 08:41:31;;;;;;;11.85;10.52;;;;;;;24.17;46.22;95936.47;6006388;29;108962;-57
2023/10/05 08:44:38;;;;;;;11.65;10.05;;;;;;;24.15;45.62;95941.34;6017325;29;109032;-57
2023/10/05 08:47:42;;;;;;;10.80;9.75;;;;;;;24.17;46.17;95933.81;6017417;29;108906;-60
2023/10/05 08:50:50;;;;;;;10.90;9.80;;;;;;;24.20;45.88;95943.94;6006214;28;108944;-60
2023/10/05 08:53:59;;;;;;;10.35;9.35;;;;;;;24.17;45.65;95933.81;6016523;28;108899;-62
2023/10/05 08:57:09;;;;;;;10.82;9.73;;;;;;;24.17;46.00;95936.47;6016769;28;108856;-61
2023/10/05 09:00:15;;;;;;;11.18;9.60;;;;;;;24.17;45.94;95933.81;6016933;28;110175;-61
2023/10/05 09:06:47;;;;;;;11.13;9.93;;;;;;;24.16;45.79;95932.22;6015527;28;108947;-61
2023/10/05 09:09:54;;;;;;;11.80;10.10;;;;;;;24.19;45.89;95926.28;6016060;28;109248;-61
2023/10/05 09:12:58;;;;;;;10.20;9.20;;;;;;;24.19;45.79;95929.75;6011783;28;109085;-60
2023/10/05 09:16:06;;;;;;;10.63;9.52;;;;;;;24.14;45.69;95918.34;6011340;28;109031;-61
2023/10/05 09:19:13;;;;;;;9.95;8.95;;;;;;;24.16;45.69;95937.56;6016291;28;108972;-60
2023/10/05 09:22:22;;;;;;;10.25;8.95;;;;;;;24.18;45.52;95928.16;6017136;28;108869;-61
2023/10/05 09:25:34;;;;;;;9.23;8.40;;;;;;;24.20;45.53;95922.53;6006112;28;108919;-60
2023/10/05 09:28:51;;;;;;;9.77;8.52;;;;;;;24.19;45.50;95921.75;6016534;28;108860;-60
2023/10/05 09:31:56;;;;;;;9.48;8.57;;;;;;;24.19;45.18;95921.75;6016941;28;109187;-62
2023/10/05 09:35:00;;;;;;;9.30;8.30;;;;;;;24.25;45.61;95922.44;6015713;28;109051;-61
2023/10/05 09:38:09;;;;;;;9.13;8.23;;;;;;;24.25;45.28;95909.06;6006422;28;108915;-61
2023/10/05 09:41:17;;;;;;;9.07;8.18;;;;;;;24.24;45.38;95902.13;6015409;28;109057;-61
2023/10/05 09:44:22;;;;;;;9.20;8.40;;;;;;;24.26;45.20;95893.78;6016275;28;108819;-61
2023/10/05 09:47:27;;;;;;;9.18;8.38;;;;;;;24.29;45.15;95893.97;6010087;28;110269;-60
2023/10/05 09:50:32;;;;;;;8.90;8.00;;;;;;;24.27;44.92;95898.84;6014409;28;109053;-62
2023/10/05 09:53:38;;;;;;;9.30;8.40;;;;;;;24.27;44.92;95890.81;6016086;29;109357;-61
2023/10/05 09:56:43;;;;;;;8.53;7.73;;;;;;;24.30;45.08;95889.41;6016258;28;108911;-60
2023/10/05 09:59:57;;;;;;;8.30;7.50;;;;;;;24.30;44.86;95890.22;6006140;28;109224;-60
2023/10/05 10:03:03;;;;;;;8.60;7.80;;;;;;;24.31;44.74;95878.41;6016426;28;108774;-60
2023/10/05 10:06:09;;;;;;;8.70;7.90;;;;;;;24.28;44.77;95871.00;5992840;29;108966;-60
2023/10/05 10:09:13;;;;;;;8.10;7.30;;;;;;;24.29;44.55;95871.78;6001691;29;108829;-60
2023/10/05 10:12:33;;;;;;;8.27;7.47;;;;;;;24.31;44.79;95866.94;6004460;28;109215;-59
2023/10/05 10:15:36;;;;;;;8.00;7.30;;;;;;;24.31;44.67;95872.28;6015996;29;108937;-60
2023/10/05 10:18:39;;;;;;;8.50;7.70;;;;;;;24.28;44.52;95865.66;6015819;28;109335;-59
2023/10/05 10:21:46;;;;;;;8.00;7.25;;;;;;;24.26;44.54;95851.78;6005490;28;108936;-60
2023/10/05 10:24:52;;;;;;;8.13;7.43;;;;;;;24.30;44.52;95851.97;6015561;28;109287;-59
2023/10/05 10:28:16;;;;;;;8.10;7.40;;;;;;;24.28;44.56;95854.94;6015722;28;108903;-60
2023/10/05 10:31:29;;;;;;;8.27;7.57;;;;;;;24.27;44.49;95848.03;5992542;29;109336;-60
2023/10/05 10:34:49;;;;;;;8.53;7.10;;;;;;;24.32;44.72;95839.88;5992052;29;109568;-59
2023/10/05 10:37:54;;;;;;;8.30;7.60;;;;;;;24.36;44.39;95842.75;6015779;28;108861;-59
2023/10/05 10:41:10;;;;;;;8.05;7.25;;;;;;;24.35;44.67;95830.44;6015566;28;108965;-58
2023/10/05 10:44:23;;;;;;;7.68;6.95;;;;;;;24.30;44.72;95828.69;6007069;29;109017;-58
2023/10/05 10:47:27;;;;;;;8.10;6.83;;;;;;;24.32;44.66;95815.00;6015296;29;109186;-58
2023/10/05 10:50:31;;;;;;;8.33;7.50;;;;;;;24.34;44.95;95813.63;6015595;28;109310;-59
2023/10/05 10:53:37;;;;;;;8.02;7.22;;;;;;;24.28;44.78;95809.47;6015467;28;108870;-59
2023/10/05 10:56:43;;;;;;;7.93;7.13;;;;;;;24.26;44.94;95802.84;6004636;28;108956;-59
2023/10/05 10:59:47;;;;;;;7.80;7.10;;;;;;;24.27;44.86;95801.75;6015473;28;109320;-57
2023/10/05 11:02:54;;;;;;;8.20;7.40;;;;;;;24.18;45.01;95796.31;6015309;28;108942;-60
2023/10/05 11:06:00;;;;;;;7.90;7.20;;;;;;;24.13;45.09;95789.19;6017804;28;109153;-60
2023/10/05 11:09:10;;;;;;;8.30;7.50;;;;;;;24.12;44.78;95778.81;6008322;28;109015;-61
2023/10/05 11:12:17;;;;;;;7.53;6.72;;;;;;;24.06;44.76;95772.00;6018949;28;109076;-61
2023/10/05 11:15:28;;;;;;;8.20;7.40;;;;;;;24.06;44.85;95766.66;6018319;28;108893;-61
2023/10/05 11:18:34;;;;;;;7.93;7.22;;;;;;;24.05;44.82;95760.50;6009094;28;109037;-60
2023/10/05 11:21:45;;;;;;;7.67;6.87;;;;;;;24.02;44.76;95762.97;6018825;28;108958;-61
2023/10/05 11:25:13;;;;;;;7.20;6.50;;;;;;;24.00;44.87;95763.28;6018975;28;108993;-61
2023/10/05 11:28:25;;;;;;;7.00;6.40;;;;;;;23.97;44.79;95750.47;6018680;28;108856;-60
2023/10/05 11:31:34;;;;;;;7.30;6.60;;;;;;;23.93;44.74;95749.50;6008083;28;110104;-60
2023/10/05 11:34:57;;;;;;;8.77;7.17;;;;;;;23.93;44.85;95751.38;6018185;28;109111;-60
2023/10/05 11:38:26;;;;;;;7.37;6.77;;;;;;;23.94;44.65;95744.94;6018931;28;108899;-60
2023/10/05 11:41:32;;;;;;;7.43;6.60;;;;;;;23.90;44.13;95740.19;6008245;28;108851;-60
2023/10/05 11:44:36;;;;;;;7.78;7.07;;;;;;;23.90;44.62;95740.19;6018463;28;108857;-61
2023/10/05 11:47:47;;;;;;;7.78;7.07;;;;;;;23.88;44.64;95742.38;6017826;29;108876;-61
2023/10/05 11:50:52;;;;;;;7.10;6.40;;;;;;;23.88;44.51;95733.59;6018417;28;108772;-60
2023/10/05 11:53:59;;;;;;;7.40;6.70;;;;;;;23.83;44.47;95736.34;6007465;28;111448;-60
2023/10/05 11:57:05;;;;;;;6.85;6.15;;;;;;;23.82;44.56;95729.41;6018260;28;109105;-60
2023/10/05 12:00:13;;;;;;;7.97;7.27;;;;;;;23.90;44.84;95729.50;6018334;28;108844;-60
2023/10/05 12:03:17;;;;;;;8.00;7.30;;;;;;;23.94;44.87;95723.56;6013828;28;109708;-60
2023/10/05 12:06:25;;;;;;;7.50;6.80;;;;;;;23.95;44.95;95719.78;6012155;28;123022;-60
2023/10/05 12:09:31;;;;;;;7.50;6.80;;;;;;;23.92;44.87;95725.75;6018323;28;108934;-60
2023/10/05 12:12:34;;;;;;;7.63;6.93;;;;;;;23.95;44.91;95723.25;6018200;28;108765;-60
2023/10/05 12:15:38;;;;;;;8.40;7.60;;;;;;;23.95;45.04;95720.59;6006740;28;109980;-60
2023/10/05 12:18:43;;;;;;;7.93;7.20;;;;;;;23.96;45.08;95718.69;6016175;28;109033;-56
2023/10/05 12:21:46;;;;;;;8.07;7.28;;;;;;;23.95;45.19;95717.91;6017695;28;108952;-56
2023/10/05 12:24:50;;;;;;;8.10;7.40;;;;;;;23.94;44.99;95710.97;6017782;28;109084;-56
2023/10/05 12:27:54;;;;;;;7.28;6.57;;;;;;;23.93;45.12;95711.28;6007179;28;110278;-56
2023/10/05 12:30:57;;;;;;;7.70;7.00;;;;;;;23.90;45.05;95699.31;6017281;28;109290;-56
2023/10/05 12:34:01;;;;;;;7.10;6.50;;;;;;;23.93;45.21;95695.25;6016744;28;109058;-56
2023/10/05 12:37:25;;;;;;;7.50;6.80;;;;;;;23.92;45.00;95694.47;5989060;28;108898;-57
2023/10/05 12:40:33;;;;;;;7.97;7.18;;;;;;;23.90;45.38;95691.28;6000463;29;109057;-56
2023/10/05 12:43:37;;;;;;;7.47;6.78;;;;;;;23.88;44.92;95696.94;6017555;28;108819;-56
2023/10/05 12:46:40;;;;;;;7.70;6.90;;;;;;;23.94;44.98;95697.63;6017572;28;108918;-56
2023/10/05 12:49:45;;;;;;;8.02;7.22;;;;;;;23.90;45.15;95689.41;6006015;28;108902;-56
2023/10/05 12:52:51;;;;;;;7.43;6.73;;;;;;;23.88;45.23;95680.91;6017498;28;108812;-56
2023/10/05 12:55:56;;;;;;;7.50;6.80;;;;;;;23.82;44.65;95682.09;6016942;28;108863;-56
2023/10/05 12:59:03;;;;;;;7.40;6.70;;;;;;;23.80;44.50;95681.59;6017392;28;109156;-56
2023/10/05 13:02:15;;;;;;;7.47;6.78;;;;;;;23.69;44.95;95661.56;6006309;28;109025;-56
2023/10/05 13:05:28;;;;;;;7.90;6.70;;;;;;;23.74;44.91;95666.78;6016617;28;109313;-57
2023/10/05 13:08:40;;;;;;;7.53;6.75;;;;;;;23.75;44.62;95660.34;6017105;29;108858;-56
2023/10/05 13:11:45;;;;;;;7.20;6.50;;;;;;;23.73;44.63;95669.75;6011412;28;109200;-56
2023/10/05 13:14:48;;;;;;;7.45;6.75;;;;;;;23.73;44.69;95665.22;6012190;29;109563;-56
2023/10/05 13:17:53;;;;;;;6.70;6.10;;;;;;;23.71;44.45;95666.59;6016821;28;108932;-57
2023/10/05 13:20:59;;;;;;;7.40;6.50;;;;;;;23.71;44.88;95659.38;6015954;28;108962;-56
2023/10/05 13:24:03;;;;;;;7.18;6.47;;;;;;;23.71;44.40;95651.34;6006014;29;108763;-56
2023/10/05 13:27:07;;;;;;;7.05;6.35;;;;;;;23.70;44.92;95651.66;6016429;28;108989;-56
2023/10/05 13:30:17;;;;;;;7.40;6.70;;;;;;;23.69;44.19;95650.88;6016322;28;108924;-59
2023/10/05 13:33:22;;;;;;;6.70;6.10;;;;;;;23.69;44.59;95645.53;6016465;29;108930;-60
2023/10/05 13:36:27;;;;;;;6.67;6.07;;;;;;;23.66;44.68;95646.09;6005831;28;109241;-60
2023/10/05 13:39:34;;;;;;;7.20;6.50;;;;;;;23.67;44.43;95639.66;6016340;28;108936;-60
2023/10/05 13:42:37;;;;;;;6.75;6.15;;;;;;;23.68;44.47;95643.13;5993900;29;108859;-60
2023/10/05 13:45:45;;;;;;;7.10;6.40;;;;;;;23.66;44.39;95642.63;5997090;29;108953;-59
2023/10/05 13:48:53;;;;;;;7.37;6.67;;;;;;;23.65;44.51;95633.84;6011442;28;108905;-60
2023/10/05 13:52:05;;;;;;;7.10;6.40;;;;;;;23.64;44.56;95626.91;6015673;28;108854;-60
2023/10/05 13:55:09;;;;;;;7.43;6.73;;;;;;;23.66;44.25;95632.75;6016398;28;109214;-60
2023/10/05 13:58:14;;;;;;;6.93;6.32;;;;;;;23.64;44.79;95631.47;6005896;28;111180;-60
2023/10/05 14:01:23;;;;;;;6.90;6.20;;;;;;;23.65;44.47;95631.16;6016440;28;108845;-60
2023/10/05 14:04:30;;;;;;;6.80;6.20;;;;;;;23.64;44.75;95628.78;6003040;28;108856;-60
2023/10/05 14:07:35;;;;;;;7.18;6.47;;;;;;;23.64;44.44;95623.44;6015472;29;108791;-60
2023/10/05 14:10:38;;;;;;;7.50;6.80;;;;;;;23.64;44.52;95618.09;6005412;28;108910;-60
2023/10/05 14:13:43;;;;;;;8.15;7.00;;;;;;;23.64;44.47;95621.56;6016568;28;109224;-60
2023/10/05 14:16:50;;;;;;;7.00;6.30;;;;;;;23.63;44.32;95613.84;6016169;28;108884;-60
2023/10/05 14:19:54;;;;;;;6.85;6.25;;;;;;;23.62;44.50;95613.06;6011169;28;109976;-60
2023/10/05 14:23:01;;;;;;;6.82;6.13;;;;;;;23.62;44.32;95613.06;6011021;28;108946;-60
2023/10/05 14:26:04;;;;;;;7.60;6.78;;;;;;;23.61;44.64;95606.16;6015673;28;108878;-60
2023/10/05 14:29:07;;;;;;;7.20;6.50;;;;;;;23.61;44.68;95611.50;6015902;28;109032;-60